sensor_id;sensor_type;location;lat;lon;timestamp;temperature;humidity
23683;DHT22;24897;53.514;10.482;2023-10-13T00:01:40;13.10;99.90
23683;DHT22;24897;53.514;10.482;2023-10-13T00:04:25;12.60;99.90
23683;DHT22;24897;53.514;10.482;2023-10-13T00:07:10;13.10;99.90
23683;DHT22;24897;53.514;10.482;2023-10-13T00:09:54;12.70;99.90
23683;DHT22;24897;53.514;10.482;2023-10-13T00:12:40;13.10;99.90
23683;DHT22;24897;53.514;10.482;2023-10-13T00:15:24;13.10;99.90
23683;DHT22;24897;53.514;10.482;2023-10-13T00:18:12;13.00;99.90
23683;DHT22;24897;53.514;10.482;2023-10-13T00:20:56;13.10;99.90
23683;DHT22;24897;53.514;10.482;2023-10-13T00:23:41;13.10;99.90
23683;DHT22;24897;53.514;10.482;2023-10-13T00:26:36;13.10;99.90
23683;DHT22;24897;53.514;10.482;2023-10-13T00:29:20;13.10;99.90
23683;DHT22;24897;53.514;10.482;2023-10-13T00:32:12;13.10;99.90
23683;DHT22;24897;53.514;10.482;2023-10-13T00:34:56;13.20;99.90
23683;DHT22;24897;53.514;10.482;2023-10-13T00:37:41;13.20;99.90
23683;DHT22;24897;53.514;10.482;2023-10-13T00:40:28;13.20;99.90
23683;DHT22;24897;53.514;10.482;2023-10-13T00:43:15;13.20;99.90
23683;DHT22;24897;53.514;10.482;2023-10-13T00:46:02;13.20;99.90
23683;DHT22;24897;53.514;10.482;2023-10-13T00:48:46;13.30;99.90
23683;DHT22;24897;53.514;10.482;2023-10-13T00:51:36;13.20;99.90
23683;DHT22;24897;53.514;10.482;2023-10-13T00:54:25;13.30;99.90
23683;DHT22;24897;53.514;10.482;2023-10-13T00:57:10;13.30;99.90
23683;DHT22;24897;53.514;10.482;2023-10-13T01:00:10;13.30;99.90
23683;DHT22;24897;53.514;10.482;2023-10-13T01:03:08;13.30;99.90
23683;DHT22;24897;53.514;10.482;2023-10-13T01:05:56;13.30;99.90
23683;DHT22;24897;53.514;10.482;2023-10-13T01:08:46;13.30;99.90
23683;DHT22;24897;53.514;10.482;2023-10-13T01:11:34;13.30;99.90
23683;DHT22;24897;53.514;10.482;2023-10-13T01:14:21;13.30;99.90
23683;DHT22;24897;53.514;10.482;2023-10-13T01:17:07;13.20;99.90
23683;DHT22;24897;53.514;10.482;2023-10-13T01:19:51;13.20;99.90
23683;DHT22;24897;53.514;10.482;2023-10-13T01:22:42;13.30;99.90
23683;DHT22;24897;53.514;10.482;2023-10-13T01:25:26;13.30;99.90
23683;DHT22;24897;53.514;10.482;2023-10-13T01:28:12;13.30;99.90
23683;DHT22;24897;53.514;10.482;2023-10-13T01:31:02;13.30;99.90
23683;DHT22;24897;53.514;10.482;2023-10-13T01:33:46;13.30;99.90
23683;DHT22;24897;53.514;10.482;2023-10-13T01:36:30;13.40;99.90
23683;DHT22;24897;53.514;10.482;2023-10-13T01:39:46;13.40;99.90
23683;DHT22;24897;53.514;10.482;2023-10-13T01:42:31;13.30;99.90
23683;DHT22;24897;53.514;10.482;2023-10-13T01:45:15;13.40;99.90
23683;DHT22;24897;53.514;10.482;2023-10-13T01:48:04;13.40;99.90
23683;DHT22;24897;53.514;10.482;2023-10-13T01:50:48;13.40;99.90
23683;DHT22;24897;53.514;10.482;2023-10-13T01:53:40;13.40;99.90
23683;DHT22;24897;53.514;10.482;2023-10-13T01:56:25;13.40;99.90
23683;DHT22;24897;53.514;10.482;2023-10-13T01:59:14;13.50;99.90
23683;DHT22;24897;53.514;10.482;2023-10-13T02:01:59;13.50;99.90
23683;DHT22;24897;53.514;10.482;2023-10-13T02:04:45;13.50;99.90
23683;DHT22;24897;53.514;10.482;2023-10-13T02:07:56;13.50;99.90
23683;DHT22;24897;53.514;10.482;2023-10-13T02:10:45;13.50;99.90
23683;DHT22;24897;53.514;10.482;2023-10-13T02:13:29;13.50;99.90
23683;DHT22;24897;53.514;10.482;2023-10-13T02:16:13;13.50;99.90
23683;DHT22;24897;53.514;10.482;2023-10-13T02:19:02;13.60;99.90
23683;DHT22;24897;53.514;10.482;2023-10-13T02:21:49;13.60;99.90
23683;DHT22;24897;53.514;10.482;2023-10-13T02:24:42;13.60;99.90
23683;DHT22;24897;53.514;10.482;2023-10-13T02:27:28;13.60;99.90
23683;DHT22;24897;53.514;10.482;2023-10-13T02:30:12;13.60;99.90
23683;DHT22;24897;53.514;10.482;2023-10-13T02:32:58;13.60;99.90
23683;DHT22;24897;53.514;10.482;2023-10-13T02:35:49;13.70;99.90
23683;DHT22;24897;53.514;10.482;2023-10-13T02:38:43;13.40;99.90
23683;DHT22;24897;53.514;10.482;2023-10-13T02:41:30;13.70;99.90
23683;DHT22;24897;53.514;10.482;2023-10-13T02:44:17;13.70;99.90
23683;DHT22;24897;53.514;10.482;2023-10-13T02:47:17;15.10;99.90
23683;DHT22;24897;53.514;10.482;2023-10-13T02:50:03;13.80;99.90
23683;DHT22;24897;53.514;10.482;2023-10-13T02:52:55;13.80;99.90
23683;DHT22;24897;53.514;10.482;2023-10-13T02:55:53;13.90;99.90
23683;DHT22;24897;53.514;10.482;2023-10-13T02:58:37;13.80;99.90
23683;DHT22;24897;53.514;10.482;2023-10-13T03:01:27;13.80;99.90
23683;DHT22;24897;53.514;10.482;2023-10-13T03:04:13;13.90;99.90
23683;DHT22;24897;53.514;10.482;2023-10-13T03:06:57;13.90;99.90
23683;DHT22;24897;53.514;10.482;2023-10-13T03:09:43;13.90;99.90
23683;DHT22;24897;53.514;10.482;2023-10-13T03:12:35;13.90;99.90
23683;DHT22;24897;53.514;10.482;2023-10-13T03:15:19;14.00;99.90
23683;DHT22;24897;53.514;10.482;2023-10-13T03:18:06;14.00;99.90
23683;DHT22;24897;53.514;10.482;2023-10-13T03:20:51;14.00;99.90
23683;DHT22;24897;53.514;10.482;2023-10-13T03:23:41;14.10;99.90
23683;DHT22;24897;53.514;10.482;2023-10-13T03:26:30;14.10;99.90
23683;DHT22;24897;53.514;10.482;2023-10-13T03:29:18;13.90;99.90
23683;DHT22;24897;53.514;10.482;2023-10-13T03:32:06;14.20;99.90
23683;DHT22;24897;53.514;10.482;2023-10-13T03:34:51;14.20;99.90
23683;DHT22;24897;53.514;10.482;2023-10-13T03:37:44;14.20;99.90
23683;DHT22;24897;53.514;10.482;2023-10-13T03:40:28;14.30;99.90
23683;DHT22;24897;53.514;10.482;2023-10-13T03:43:12;14.30;99.90
23683;DHT22;24897;53.514;10.482;2023-10-13T03:45:57;14.30;99.90
23683;DHT22;24897;53.514;10.482;2023-10-13T03:48:45;14.30;99.90
23683;DHT22;24897;53.514;10.482;2023-10-13T03:51:40;14.40;99.90
23683;DHT22;24897;53.514;10.482;2023-10-13T03:54:24;14.40;99.90
23683;DHT22;24897;53.514;10.482;2023-10-13T03:57:08;14.40;99.90
23683;DHT22;24897;53.514;10.482;2023-10-13T03:59:55;14.50;99.90
23683;DHT22;24897;53.514;10.482;2023-10-13T04:02:40;14.50;99.90
23683;DHT22;24897;53.514;10.482;2023-10-13T04:05:32;14.60;99.90
23683;DHT22;24897;53.514;10.482;2023-10-13T04:08:39;14.60;99.90
23683;DHT22;24897;53.514;10.482;2023-10-13T04:11:26;14.60;99.90
23683;DHT22;24897;53.514;10.482;2023-10-13T04:14:44;14.60;99.90
23683;DHT22;24897;53.514;10.482;2023-10-13T04:17:29;14.60;99.90
23683;DHT22;24897;53.514;10.482;2023-10-13T04:20:17;14.60;99.90
23683;DHT22;24897;53.514;10.482;2023-10-13T04:23:13;14.60;99.90
23683;DHT22;24897;53.514;10.482;2023-10-13T04:26:05;14.70;99.90
23683;DHT22;24897;53.514;10.482;2023-10-13T04:28:53;14.70;99.90
23683;DHT22;24897;53.514;10.482;2023-10-13T04:31:37;14.80;99.90
23683;DHT22;24897;53.514;10.482;2023-10-13T04:34:30;14.80;99.90
23683;DHT22;24897;53.514;10.482;2023-10-13T04:37:22;14.80;99.90
23683;DHT22;24897;53.514;10.482;2023-10-13T04:40:13;14.90;99.90
23683;DHT22;24897;53.514;10.482;2023-10-13T04:42:58;14.90;99.90
23683;DHT22;24897;53.514;10.482;2023-10-13T04:45:48;15.00;99.90
23683;DHT22;24897;53.514;10.482;2023-10-13T04:48:38;15.10;99.90
23683;DHT22;24897;53.514;10.482;2023-10-13T04:51:23;15.10;99.90
23683;DHT22;24897;53.514;10.482;2023-10-13T04:54:28;15.00;99.90
23683;DHT22;24897;53.514;10.482;2023-10-13T04:57:31;15.20;99.90
23683;DHT22;24897;53.514;10.482;2023-10-13T05:00:34;15.30;99.90
23683;DHT22;24897;53.514;10.482;2023-10-13T05:03:53;15.30;99.90
23683;DHT22;24897;53.514;10.482;2023-10-13T05:06:37;15.40;99.90
23683;DHT22;24897;53.514;10.482;2023-10-13T05:09:30;15.40;99.90
23683;DHT22;24897;53.514;10.482;2023-10-13T05:12:33;15.50;99.90
23683;DHT22;24897;53.514;10.482;2023-10-13T05:15:51;15.60;99.90
23683;DHT22;24897;53.514;10.482;2023-10-13T05:18:55;15.60;99.90
23683;DHT22;24897;53.514;10.482;2023-10-13T05:21:58;15.60;99.90
23683;DHT22;24897;53.514;10.482;2023-10-13T05:25:01;15.70;99.90
23683;DHT22;24897;53.514;10.482;2023-10-13T05:28:04;15.70;99.90
23683;DHT22;24897;53.514;10.482;2023-10-13T05:31:08;15.70;99.90
23683;DHT22;24897;53.514;10.482;2023-10-13T05:34:11;15.80;99.90
23683;DHT22;24897;53.514;10.482;2023-10-13T05:37:14;15.80;99.90
23683;DHT22;24897;53.514;10.482;2023-10-13T05:40:17;15.90;99.90
23683;DHT22;24897;53.514;10.482;2023-10-13T05:43:20;15.90;99.90
23683;DHT22;24897;53.514;10.482;2023-10-13T05:46:24;15.90;99.90
23683;DHT22;24897;53.514;10.482;2023-10-13T05:49:11;16.00;99.90
23683;DHT22;24897;53.514;10.482;2023-10-13T05:51:55;16.00;99.90
23683;DHT22;24897;53.514;10.482;2023-10-13T05:54:50;16.00;99.90
23683;DHT22;24897;53.514;10.482;2023-10-13T05:57:53;16.00;99.90
23683;DHT22;24897;53.514;10.482;2023-10-13T06:00:56;16.00;99.90
23683;DHT22;24897;53.514;10.482;2023-10-13T06:04:00;16.10;99.90
23683;DHT22;24897;53.514;10.482;2023-10-13T06:07:03;16.10;99.90
23683;DHT22;24897;53.514;10.482;2023-10-13T06:10:06;16.10;99.90
23683;DHT22;24897;53.514;10.482;2023-10-13T06:13:09;16.10;99.90
23683;DHT22;24897;53.514;10.482;2023-10-13T06:16:15;16.20;99.90
23683;DHT22;24897;53.514;10.482;2023-10-13T06:19:18;16.20;99.90
23683;DHT22;24897;53.514;10.482;2023-10-13T06:22:21;16.30;99.90
23683;DHT22;24897;53.514;10.482;2023-10-13T06:25:24;16.30;99.90
23683;DHT22;24897;53.514;10.482;2023-10-13T06:28:34;16.30;99.90
23683;DHT22;24897;53.514;10.482;2023-10-13T06:31:24;16.30;99.90
23683;DHT22;24897;53.514;10.482;2023-10-13T06:34:10;16.40;99.90
23683;DHT22;24897;53.514;10.482;2023-10-13T06:36:59;16.40;99.90
23683;DHT22;24897;53.514;10.482;2023-10-13T06:39:43;16.40;99.90
23683;DHT22;24897;53.514;10.482;2023-10-13T06:42:30;16.50;99.90
23683;DHT22;24897;53.514;10.482;2023-10-13T06:45:18;16.40;99.90
23683;DHT22;24897;53.514;10.482;2023-10-13T06:48:04;16.50;99.90
23683;DHT22;24897;53.514;10.482;2023-10-13T06:50:49;16.50;99.90
23683;DHT22;24897;53.514;10.482;2023-10-13T06:53:36;16.50;99.90
23683;DHT22;24897;53.514;10.482;2023-10-13T06:56:21;16.50;99.90
23683;DHT22;24897;53.514;10.482;2023-10-13T06:59:14;16.60;99.90
23683;DHT22;24897;53.514;10.482;2023-10-13T07:01:59;16.60;99.90
23683;DHT22;24897;53.514;10.482;2023-10-13T07:04:49;16.60;99.90
23683;DHT22;24897;53.514;10.482;2023-10-13T07:07:47;16.60;99.90
23683;DHT22;24897;53.514;10.482;2023-10-13T07:10:32;16.60;99.90
23683;DHT22;24897;53.514;10.482;2023-10-13T07:13:32;16.60;99.90
23683;DHT22;24897;53.514;10.482;2023-10-13T07:16:20;16.70;99.90
23683;DHT22;24897;53.514;10.482;2023-10-13T07:19:04;16.70;99.90
23683;DHT22;24897;53.514;10.482;2023-10-13T07:21:50;16.70;99.90
23683;DHT22;24897;53.514;10.482;2023-10-13T07:24:42;16.70;99.90
23683;DHT22;24897;53.514;10.482;2023-10-13T07:27:26;16.70;99.90
23683;DHT22;24897;53.514;10.482;2023-10-13T07:30:11;16.70;99.90
23683;DHT22;24897;53.514;10.482;2023-10-13T07:32:55;16.70;99.90
23683;DHT22;24897;53.514;10.482;2023-10-13T07:35:43;16.70;99.90
23683;DHT22;24897;53.514;10.482;2023-10-13T07:38:27;16.70;99.90
23683;DHT22;24897;53.514;10.482;2023-10-13T07:41:15;16.70;99.90
23683;DHT22;24897;53.514;10.482;2023-10-13T07:43:59;16.80;99.90
23683;DHT22;24897;53.514;10.482;2023-10-13T07:46:44;16.80;99.90
23683;DHT22;24897;53.514;10.482;2023-10-13T07:49:32;16.80;99.90
23683;DHT22;24897;53.514;10.482;2023-10-13T07:52:20;16.80;99.90
23683;DHT22;24897;53.514;10.482;2023-10-13T07:55:04;16.70;99.90
23683;DHT22;24897;53.514;10.482;2023-10-13T07:58:03;16.70;99.90
23683;DHT22;24897;53.514;10.482;2023-10-13T08:00:52;16.80;99.90
23683;DHT22;24897;53.514;10.482;2023-10-13T08:03:51;16.80;99.90
23683;DHT22;24897;53.514;10.482;2023-10-13T08:06:55;16.80;99.90
23683;DHT22;24897;53.514;10.482;2023-10-13T08:09:47;16.80;99.90
23683;DHT22;24897;53.514;10.482;2023-10-13T08:12:36;16.80;99.90
23683;DHT22;24897;53.514;10.482;2023-10-13T08:15:21;16.80;99.90
23683;DHT22;24897;53.514;10.482;2023-10-13T08:18:11;16.90;99.90
23683;DHT22;24897;53.514;10.482;2023-10-13T08:21:04;16.90;99.90
23683;DHT22;24897;53.514;10.482;2023-10-13T08:23:50;17.00;99.90
23683;DHT22;24897;53.514;10.482;2023-10-13T08:26:38;16.90;99.90
23683;DHT22;24897;53.514;10.482;2023-10-13T08:29:46;16.90;99.90
23683;DHT22;24897;53.514;10.482;2023-10-13T08:32:40;16.80;99.90
23683;DHT22;24897;53.514;10.482;2023-10-13T08:35:41;16.80;99.90
23683;DHT22;24897;53.514;10.482;2023-10-13T08:38:38;16.80;99.90
23683;DHT22;24897;53.514;10.482;2023-10-13T08:41:40;16.90;99.90
23683;DHT22;24897;53.514;10.482;2023-10-13T08:44:44;16.90;99.90
23683;DHT22;24897;53.514;10.482;2023-10-13T08:47:30;16.90;99.90
23683;DHT22;24897;53.514;10.482;2023-10-13T08:50:22;16.90;99.90
23683;DHT22;24897;53.514;10.482;2023-10-13T08:53:29;16.80;99.90
23683;DHT22;24897;53.514;10.482;2023-10-13T08:56:31;16.80;99.90
23683;DHT22;24897;53.514;10.482;2023-10-13T08:59:18;16.80;99.90
23683;DHT22;24897;53.514;10.482;2023-10-13T09:02:16;16.80;99.90
23683;DHT22;24897;53.514;10.482;2023-10-13T09:05:01;16.70;99.90
23683;DHT22;24897;53.514;10.482;2023-10-13T09:07:54;16.70;99.90
23683;DHT22;24897;53.514;10.482;2023-10-13T09:10:58;16.70;99.90
23683;DHT22;24897;53.514;10.482;2023-10-13T09:13:50;16.70;99.90
23683;DHT22;24897;53.514;10.482;2023-10-13T09:16:36;16.70;99.90
23683;DHT22;24897;53.514;10.482;2023-10-13T09:19:23;16.70;99.90
23683;DHT22;24897;53.514;10.482;2023-10-13T09:22:07;16.70;99.90
23683;DHT22;24897;53.514;10.482;2023-10-13T09:24:51;16.70;99.90
23683;DHT22;24897;53.514;10.482;2023-10-13T09:27:36;16.70;99.90
23683;DHT22;24897;53.514;10.482;2023-10-13T09:30:21;16.70;99.90
23683;DHT22;24897;53.514;10.482;2023-10-13T09:33:07;16.80;99.90
23683;DHT22;24897;53.514;10.482;2023-10-13T09:36:00;16.70;99.90
23683;DHT22;24897;53.514;10.482;2023-10-13T09:38:44;16.80;99.90
23683;DHT22;24897;53.514;10.482;2023-10-13T09:41:49;17.00;99.90
23683;DHT22;24897;53.514;10.482;2023-10-13T09:44:37;16.80;99.90
23683;DHT22;24897;53.514;10.482;2023-10-13T09:47:25;16.90;99.90
23683;DHT22;24897;53.514;10.482;2023-10-13T09:50:21;16.90;99.90
23683;DHT22;24897;53.514;10.482;2023-10-13T09:53:10;17.00;99.90
23683;DHT22;24897;53.514;10.482;2023-10-13T09:56:00;17.10;99.90
23683;DHT22;24897;53.514;10.482;2023-10-13T09:59:06;17.10;99.90
23683;DHT22;24897;53.514;10.482;2023-10-13T10:01:57;17.20;99.90
23683;DHT22;24897;53.514;10.482;2023-10-13T10:04:51;17.20;99.90
23683;DHT22;24897;53.514;10.482;2023-10-13T10:07:35;17.20;99.90
23683;DHT22;24897;53.514;10.482;2023-10-13T10:10:22;17.20;99.90
23683;DHT22;24897;53.514;10.482;2023-10-13T10:13:15;17.20;99.90
23683;DHT22;24897;53.514;10.482;2023-10-13T10:16:10;17.20;99.90
23683;DHT22;24897;53.514;10.482;2023-10-13T10:19:01;17.20;99.90
23683;DHT22;24897;53.514;10.482;2023-10-13T10:21:46;18.40;99.90
23683;DHT22;24897;53.514;10.482;2023-10-13T10:24:32;17.30;99.90
23683;DHT22;24897;53.514;10.482;2023-10-13T10:27:25;17.30;99.90
23683;DHT22;24897;53.514;10.482;2023-10-13T10:30:10;17.40;99.90
23683;DHT22;24897;53.514;10.482;2023-10-13T10:32:58;17.40;99.90
23683;DHT22;24897;53.514;10.482;2023-10-13T10:35:59;17.40;99.90
23683;DHT22;24897;53.514;10.482;2023-10-13T10:38:53;17.50;99.90
23683;DHT22;24897;53.514;10.482;2023-10-13T10:41:45;17.60;99.90
23683;DHT22;24897;53.514;10.482;2023-10-13T10:44:43;17.70;99.90
23683;DHT22;24897;53.514;10.482;2023-10-13T10:47:28;17.80;99.90
23683;DHT22;24897;53.514;10.482;2023-10-13T10:50:25;17.90;99.90
23683;DHT22;24897;53.514;10.482;2023-10-13T10:53:20;18.30;99.90
23683;DHT22;24897;53.514;10.482;2023-10-13T10:56:12;17.90;99.90
23683;DHT22;24897;53.514;10.482;2023-10-13T10:59:34;18.40;99.90
23683;DHT22;24897;53.514;10.482;2023-10-13T11:02:30;18.50;99.90
23683;DHT22;24897;53.514;10.482;2023-10-13T11:05:15;18.70;99.90
23683;DHT22;24897;53.514;10.482;2023-10-13T11:08:04;18.60;99.90
23683;DHT22;24897;53.514;10.482;2023-10-13T11:10:53;18.70;99.90
23683;DHT22;24897;53.514;10.482;2023-10-13T11:13:44;19.30;99.90
23683;DHT22;24897;53.514;10.482;2023-10-13T11:16:50;20.30;99.90
23683;DHT22;24897;53.514;10.482;2023-10-13T11:19:42;20.10;99.90
23683;DHT22;24897;53.514;10.482;2023-10-13T11:22:26;19.20;99.90
23683;DHT22;24897;53.514;10.482;2023-10-13T11:25:24;19.00;99.90
23683;DHT22;24897;53.514;10.482;2023-10-13T11:28:15;19.30;99.90
23683;DHT22;24897;53.514;10.482;2023-10-13T11:31:04;20.90;99.90
23683;DHT22;24897;53.514;10.482;2023-10-13T11:33:54;19.10;99.90
23683;DHT22;24897;53.514;10.482;2023-10-13T11:36:40;20.10;99.90
23683;DHT22;24897;53.514;10.482;2023-10-13T11:39:24;19.20;99.90
23683;DHT22;24897;53.514;10.482;2023-10-13T11:42:17;19.30;99.90
23683;DHT22;24897;53.514;10.482;2023-10-13T11:45:01;19.40;99.90
23683;DHT22;24897;53.514;10.482;2023-10-13T11:48:05;19.60;99.90
23683;DHT22;24897;53.514;10.482;2023-10-13T11:50:57;19.60;99.90
23683;DHT22;24897;53.514;10.482;2023-10-13T11:53:41;19.60;99.90
23683;DHT22;24897;53.514;10.482;2023-10-13T11:56:25;20.10;99.90
23683;DHT22;24897;53.514;10.482;2023-10-13T11:59:09;19.80;99.90
23683;DHT22;24897;53.514;10.482;2023-10-13T12:02:02;19.80;99.90
23683;DHT22;24897;53.514;10.482;2023-10-13T12:05:05;19.80;99.90
23683;DHT22;24897;53.514;10.482;2023-10-13T12:07:55;19.90;99.90
23683;DHT22;24897;53.514;10.482;2023-10-13T12:10:47;19.80;99.90
23683;DHT22;24897;53.514;10.482;2023-10-13T12:13:43;20.00;99.90
23683;DHT22;24897;53.514;10.482;2023-10-13T12:16:27;19.90;99.90
23683;DHT22;24897;53.514;10.482;2023-10-13T12:19:20;19.90;99.90
23683;DHT22;24897;53.514;10.482;2023-10-13T12:22:07;19.90;99.90
23683;DHT22;24897;53.514;10.482;2023-10-13T12:24:53;19.90;99.90
23683;DHT22;24897;53.514;10.482;2023-10-13T12:27:40;19.90;99.90
23683;DHT22;24897;53.514;10.482;2023-10-13T12:30:32;20.10;99.90
23683;DHT22;24897;53.514;10.482;2023-10-13T12:33:35;20.30;99.90
23683;DHT22;24897;53.514;10.482;2023-10-13T12:36:24;20.50;99.90
23683;DHT22;24897;53.514;10.482;2023-10-13T12:39:15;20.50;99.90
23683;DHT22;24897;53.514;10.482;2023-10-13T12:42:18;20.60;99.90
23683;DHT22;24897;53.514;10.482;2023-10-13T12:45:21;20.70;99.90
23683;DHT22;24897;53.514;10.482;2023-10-13T12:48:24;20.50;99.90
23683;DHT22;24897;53.514;10.482;2023-10-13T12:51:27;20.40;99.90
23683;DHT22;24897;53.514;10.482;2023-10-13T12:54:11;20.40;99.90
23683;DHT22;24897;53.514;10.482;2023-10-13T12:56:58;20.30;99.90
23683;DHT22;24897;53.514;10.482;2023-10-13T12:59:43;20.40;99.90
23683;DHT22;24897;53.514;10.482;2023-10-13T13:02:27;20.60;99.90
23683;DHT22;24897;53.514;10.482;2023-10-13T13:05:12;20.70;99.90
23683;DHT22;24897;53.514;10.482;2023-10-13T13:07:56;20.90;99.90
23683;DHT22;24897;53.514;10.482;2023-10-13T13:10:40;20.90;99.90
23683;DHT22;24897;53.514;10.482;2023-10-13T13:13:29;21.00;99.90
23683;DHT22;24897;53.514;10.482;2023-10-13T13:16:17;20.90;99.90
23683;DHT22;24897;53.514;10.482;2023-10-13T13:19:08;20.90;99.90
23683;DHT22;24897;53.514;10.482;2023-10-13T13:21:58;20.80;99.90
23683;DHT22;24897;53.514;10.482;2023-10-13T13:24:43;20.80;99.90
23683;DHT22;24897;53.514;10.482;2023-10-13T13:27:27;21.00;99.90
23683;DHT22;24897;53.514;10.482;2023-10-13T13:30:11;21.20;99.90
23683;DHT22;24897;53.514;10.482;2023-10-13T13:32:56;21.00;99.90
23683;DHT22;24897;53.514;10.482;2023-10-13T13:35:42;21.00;99.90
23683;DHT22;24897;53.514;10.482;2023-10-13T13:38:27;21.10;99.90
23683;DHT22;24897;53.514;10.482;2023-10-13T13:41:17;21.10;99.90
23683;DHT22;24897;53.514;10.482;2023-10-13T13:44:02;21.20;99.90
23683;DHT22;24897;53.514;10.482;2023-10-13T13:47:13;21.30;99.90
23683;DHT22;24897;53.514;10.482;2023-10-13T13:49:57;21.20;99.90
23683;DHT22;24897;53.514;10.482;2023-10-13T13:52:42;21.20;99.90
23683;DHT22;24897;53.514;10.482;2023-10-13T13:55:33;21.10;99.90
23683;DHT22;24897;53.514;10.482;2023-10-13T13:58:18;21.00;99.90
23683;DHT22;24897;53.514;10.482;2023-10-13T14:01:02;20.90;99.90
23683;DHT22;24897;53.514;10.482;2023-10-13T14:03:56;21.00;99.90
23683;DHT22;24897;53.514;10.482;2023-10-13T14:06:46;21.00;99.90
23683;DHT22;24897;53.514;10.482;2023-10-13T14:09:31;21.00;99.90
23683;DHT22;24897;53.514;10.482;2023-10-13T14:12:24;21.00;99.90
23683;DHT22;24897;53.514;10.482;2023-10-13T14:15:25;21.00;99.90
23683;DHT22;24897;53.514;10.482;2023-10-13T14:18:11;21.00;99.90
23683;DHT22;24897;53.514;10.482;2023-10-13T14:21:01;21.00;99.90
23683;DHT22;24897;53.514;10.482;2023-10-13T14:23:49;21.00;99.90
23683;DHT22;24897;53.514;10.482;2023-10-13T14:26:33;20.90;99.90
23683;DHT22;24897;53.514;10.482;2023-10-13T14:29:19;20.80;99.90
23683;DHT22;24897;53.514;10.482;2023-10-13T14:32:03;20.60;99.90
23683;DHT22;24897;53.514;10.482;2023-10-13T14:34:48;20.50;99.90
23683;DHT22;24897;53.514;10.482;2023-10-13T14:37:37;20.40;99.90
23683;DHT22;24897;53.514;10.482;2023-10-13T14:40:22;20.40;99.90
23683;DHT22;24897;53.514;10.482;2023-10-13T14:43:06;20.50;99.90
23683;DHT22;24897;53.514;10.482;2023-10-13T14:45:55;20.50;99.90
23683;DHT22;24897;53.514;10.482;2023-10-13T14:48:39;20.70;99.90
23683;DHT22;24897;53.514;10.482;2023-10-13T14:51:23;20.60;99.90
23683;DHT22;24897;53.514;10.482;2023-10-13T14:54:09;20.60;99.90
23683;DHT22;24897;53.514;10.482;2023-10-13T14:56:53;20.70;99.90
23683;DHT22;24897;53.514;10.482;2023-10-13T14:59:38;20.70;99.90
23683;DHT22;24897;53.514;10.482;2023-10-13T15:02:23;20.80;99.90
23683;DHT22;24897;53.514;10.482;2023-10-13T15:05:07;20.70;99.90
23683;DHT22;24897;53.514;10.482;2023-10-13T15:07:51;20.70;99.90
23683;DHT22;24897;53.514;10.482;2023-10-13T15:10:35;20.70;99.90
23683;DHT22;24897;53.514;10.482;2023-10-13T15:13:21;20.70;99.90
23683;DHT22;24897;53.514;10.482;2023-10-13T15:16:17;20.80;99.90
23683;DHT22;24897;53.514;10.482;2023-10-13T15:19:02;20.90;99.90
23683;DHT22;24897;53.514;10.482;2023-10-13T15:21:50;20.90;99.90
23683;DHT22;24897;53.514;10.482;2023-10-13T15:24:36;20.90;99.90
23683;DHT22;24897;53.514;10.482;2023-10-13T15:27:29;20.90;99.90
23683;DHT22;24897;53.514;10.482;2023-10-13T15:30:13;20.90;99.90
23683;DHT22;24897;53.514;10.482;2023-10-13T15:33:19;21.00;99.90
23683;DHT22;24897;53.514;10.482;2023-10-13T15:36:04;21.10;99.90
23683;DHT22;24897;53.514;10.482;2023-10-13T15:38:48;21.00;99.90
23683;DHT22;24897;53.514;10.482;2023-10-13T15:41:33;21.10;99.90
23683;DHT22;24897;53.514;10.482;2023-10-13T15:44:17;21.10;99.90
23683;DHT22;24897;53.514;10.482;2023-10-13T15:47:04;21.10;99.90
23683;DHT22;24897;53.514;10.482;2023-10-13T15:49:48;21.00;99.90
23683;DHT22;24897;53.514;10.482;2023-10-13T15:52:32;21.00;99.90
23683;DHT22;24897;53.514;10.482;2023-10-13T15:55:17;21.10;99.90
23683;DHT22;24897;53.514;10.482;2023-10-13T15:58:07;21.00;99.90
23683;DHT22;24897;53.514;10.482;2023-10-13T16:00:53;21.00;99.90
23683;DHT22;24897;53.514;10.482;2023-10-13T16:03:45;21.00;99.90
23683;DHT22;24897;53.514;10.482;2023-10-13T16:06:44;21.00;99.90
23683;DHT22;24897;53.514;10.482;2023-10-13T16:09:34;21.00;99.90
23683;DHT22;24897;53.514;10.482;2023-10-13T16:12:19;21.00;99.90
23683;DHT22;24897;53.514;10.482;2023-10-13T16:15:04;21.10;99.90
23683;DHT22;24897;53.514;10.482;2023-10-13T16:17:52;21.10;99.90
23683;DHT22;24897;53.514;10.482;2023-10-13T16:20:38;21.10;99.90
23683;DHT22;24897;53.514;10.482;2023-10-13T16:23:23;21.00;99.90
23683;DHT22;24897;53.514;10.482;2023-10-13T16:26:08;21.10;99.90
23683;DHT22;24897;53.514;10.482;2023-10-13T16:28:53;21.00;99.90
23683;DHT22;24897;53.514;10.482;2023-10-13T16:31:41;20.90;99.90
23683;DHT22;24897;53.514;10.482;2023-10-13T16:34:29;20.80;99.90
23683;DHT22;24897;53.514;10.482;2023-10-13T16:37:13;20.70;99.90
23683;DHT22;24897;53.514;10.482;2023-10-13T16:39:57;20.60;99.90
23683;DHT22;24897;53.514;10.482;2023-10-13T16:42:51;20.50;99.90
23683;DHT22;24897;53.514;10.482;2023-10-13T16:45:37;20.50;99.90
23683;DHT22;24897;53.514;10.482;2023-10-13T16:48:21;20.70;99.90
23683;DHT22;24897;53.514;10.482;2023-10-13T16:51:05;20.60;99.90
23683;DHT22;24897;53.514;10.482;2023-10-13T16:53:57;20.70;99.90
23683;DHT22;24897;53.514;10.482;2023-10-13T16:56:43;20.80;99.90
23683;DHT22;24897;53.514;10.482;2023-10-13T16:59:27;20.80;99.90
23683;DHT22;24897;53.514;10.482;2023-10-13T17:02:11;20.90;99.90
23683;DHT22;24897;53.514;10.482;2023-10-13T17:04:56;20.90;99.90
23683;DHT22;24897;53.514;10.482;2023-10-13T17:07:41;20.80;99.90
23683;DHT22;24897;53.514;10.482;2023-10-13T17:10:25;20.80;99.90
23683;DHT22;24897;53.514;10.482;2023-10-13T17:13:12;20.70;99.90
23683;DHT22;24897;53.514;10.482;2023-10-13T17:15:56;20.60;99.90
23683;DHT22;24897;53.514;10.482;2023-10-13T17:18:44;20.70;99.90
23683;DHT22;24897;53.514;10.482;2023-10-13T17:21:29;20.60;99.90
23683;DHT22;24897;53.514;10.482;2023-10-13T17:24:15;20.70;99.90
23683;DHT22;24897;53.514;10.482;2023-10-13T17:27:00;20.60;99.90
23683;DHT22;24897;53.514;10.482;2023-10-13T17:29:47;20.60;99.90
23683;DHT22;24897;53.514;10.482;2023-10-13T17:32:32;20.60;99.90
23683;DHT22;24897;53.514;10.482;2023-10-13T17:35:17;20.70;99.90
23683;DHT22;24897;53.514;10.482;2023-10-13T17:38:01;20.60;99.90